sensor_id;sensor_type;location;lat;lon;timestamp;P1;durP1;ratioP1;P2;durP2;ratioP2
4325;SDS011;58429;49.826;10.880;2022-12-24T00:00:39;12.2;;;2.1;;
4325;SDS011;58429;49.826;10.880;2022-12-24T00:01:39;12.2;;;2.1;;
4325;SDS011;58429;49.826;10.880;2022-12-24T00:02:39;9.6;;;1.6;;
4325;SDS011;58429;49.826;10.880;2022-12-24T00:03:39;9.6;;;1.6;;
4325;SDS011;58429;49.826;10.880;2022-12-24T00:04:39;9.6;;;1.6;;
4325;SDS011;58429;49.826;10.880;2022-12-24T00:05:39;9.4;;;1.5;;
4325;SDS011;58429;49.826;10.880;2022-12-24T00:06:39;9.4;;;1.5;;
4325;SDS011;58429;49.826;10.880;2022-12-24T00:07:39;9.4;;;1.5;;
4325;SDS011;58429;49.826;10.880;2022-12-24T00:08:39;10.7;;;2;;
4325;SDS011;58429;49.826;10.880;2022-12-24T00:09:39;10.7;;;2;;
4325;SDS011;58429;49.826;10.880;2022-12-24T00:10:39;10.7;;;2;;
4325;SDS011;58429;49.826;10.880;2022-12-24T00:11:39;8.5;;;1.6;;
4325;SDS011;58429;49.826;10.880;2022-12-24T00:12:39;8.5;;;1.6;;
4325;SDS011;58429;49.826;10.880;2022-12-24T00:13:39;8.5;;;1.6;;
4325;SDS011;58429;49.826;10.880;2022-12-24T00:14:39;10.6;;;1.5;;
4325;SDS011;58429;49.826;10.880;2022-12-24T00:15:39;10.6;;;1.5;;
4325;SDS011;58429;49.826;10.880;2022-12-24T00:16:39;10.6;;;1.5;;
4325;SDS011;58429;49.826;10.880;2022-12-24T00:17:39;9.1;;;1.3;;
4325;SDS011;58429;49.826;10.880;2022-12-24T00:18:39;9.1;;;1.3;;
4325;SDS011;58429;49.826;10.880;2022-12-24T00:19:39;9.1;;;1.3;;
4325;SDS011;58429;49.826;10.880;2022-12-24T00:20:39;8.7;;;1.4;;
4325;SDS011;58429;49.826;10.880;2022-12-24T00:21:39;8.7;;;1.4;;
4325;SDS011;58429;49.826;10.880;2022-12-24T00:22:39;8.7;;;1.4;;
4325;SDS011;58429;49.826;10.880;2022-12-24T00:23:40;7.9;;;1.5;;
4325;SDS011;58429;49.826;10.880;2022-12-24T00:24:39;7.9;;;1.5;;
4325;SDS011;58429;49.826;10.880;2022-12-24T00:25:39;7.9;;;1.5;;
4325;SDS011;58429;49.826;10.880;2022-12-24T00:26:39;10.1;;;1.4;;
4325;SDS011;58429;49.826;10.880;2022-12-24T00:27:39;10.1;;;1.4;;
4325;SDS011;58429;49.826;10.880;2022-12-24T00:28:39;10.1;;;1.4;;
4325;SDS011;58429;49.826;10.880;2022-12-24T00:29:39;8.4;;;1.3;;
4325;SDS011;58429;49.826;10.880;2022-12-24T00:30:39;8.4;;;1.3;;
4325;SDS011;58429;49.826;10.880;2022-12-24T00:31:39;8.4;;;1.3;;
4325;SDS011;58429;49.826;10.880;2022-12-24T00:32:39;9.4;;;1.4;;
4325;SDS011;58429;49.826;10.880;2022-12-24T00:33:39;9.4;;;1.4;;
4325;SDS011;58429;49.826;10.880;2022-12-24T00:34:39;9.4;;;1.4;;
4325;SDS011;58429;49.826;10.880;2022-12-24T00:35:39;7.7;;;1.6;;
4325;SDS011;58429;49.826;10.880;2022-12-24T00:36:39;7.7;;;1.6;;
4325;SDS011;58429;49.826;10.880;2022-12-24T00:37:39;7.7;;;1.6;;
4325;SDS011;58429;49.826;10.880;2022-12-24T00:38:39;12.3;;;1.5;;
4325;SDS011;58429;49.826;10.880;2022-12-24T00:39:39;12.3;;;1.5;;
4325;SDS011;58429;49.826;10.880;2022-12-24T00:40:39;12.3;;;1.5;;
4325;SDS011;58429;49.826;10.880;2022-12-24T00:41:39;8.7;;;1.5;;
4325;SDS011;58429;49.826;10.880;2022-12-24T00:42:39;8.7;;;1.5;;
4325;SDS011;58429;49.826;10.880;2022-12-24T00:43:39;8.7;;;1.5;;
4325;SDS011;58429;49.826;10.880;2022-12-24T00:44:39;9.2;;;1.5;;
4325;SDS011;58429;49.826;10.880;2022-12-24T00:45:39;9.2;;;1.5;;
4325;SDS011;58429;49.826;10.880;2022-12-24T00:46:39;9.2;;;1.5;;
4325;SDS011;58429;49.826;10.880;2022-12-24T00:47:39;10.9;;;1.3;;
4325;SDS011;58429;49.826;10.880;2022-12-24T00:48:39;10.9;;;1.3;;
4325;SDS011;58429;49.826;10.880;2022-12-24T00:49:39;10.9;;;1.3;;
4325;SDS011;58429;49.826;10.880;2022-12-24T00:50:39;10.9;;;2;;
4325;SDS011;58429;49.826;10.880;2022-12-24T00:51:39;10.9;;;2;;
4325;SDS011;58429;49.826;10.880;2022-12-24T00:52:39;10.9;;;2;;
4325;SDS011;58429;49.826;10.880;2022-12-24T00:53:39;9.3;;;1.5;;
4325;SDS011;58429;49.826;10.880;2022-12-24T00:54:39;9.3;;;1.5;;
4325;SDS011;58429;49.826;10.880;2022-12-24T00:55:39;9.3;;;1.5;;
4325;SDS011;58429;49.826;10.880;2022-12-24T00:56:39;10.1;;;1.6;;
4325;SDS011;58429;49.826;10.880;2022-12-24T00:57:39;10.1;;;1.6;;
4325;SDS011;58429;49.826;10.880;2022-12-24T00:58:39;10.1;;;1.6;;
4325;SDS011;58429;49.826;10.880;2022-12-24T00:59:39;8.3;;;1.4;;
4325;SDS011;58429;49.826;10.880;2022-12-24T01:00:39;8.3;;;1.4;;
4325;SDS011;58429;49.826;10.880;2022-12-24T01:01:39;8.3;;;1.4;;
4325;SDS011;58429;49.826;10.880;2022-12-24T01:02:39;8.5;;;1.3;;
4325;SDS011;58429;49.826;10.880;2022-12-24T01:03:39;8.5;;;1.3;;
4325;SDS011;58429;49.826;10.880;2022-12-24T01:04:39;8.5;;;1.3;;
4325;SDS011;58429;49.826;10.880;2022-12-24T01:05:39;10.9;;;1.6;;
4325;SDS011;58429;49.826;10.880;2022-12-24T01:06:39;10.9;;;1.6;;
4325;SDS011;58429;49.826;10.880;2022-12-24T01:07:40;10.9;;;1.6;;
4325;SDS011;58429;49.826;10.880;2022-12-24T01:08:40;9.6;;;1.3;;
4325;SDS011;58429;49.826;10.880;2022-12-24T01:09:39;9.6;;;1.3;;
4325;SDS011;58429;49.826;10.880;2022-12-24T01:10:39;9.6;;;1.3;;
4325;SDS011;58429;49.826;10.880;2022-12-24T01:11:39;10.5;;;1.5;;
4325;SDS011;58429;49.826;10.880;2022-12-24T01:12:39;10.5;;;1.5;;
4325;SDS011;58429;49.826;10.880;2022-12-24T01:13:39;10.5;;;1.5;;
4325;SDS011;58429;49.826;10.880;2022-12-24T01:14:39;8.5;;;1.3;;
4325;SDS011;58429;49.826;10.880;2022-12-24T01:15:39;8.5;;;1.3;;
4325;SDS011;58429;49.826;10.880;2022-12-24T01:16:39;8.5;;;1.3;;
4325;SDS011;58429;49.826;10.880;2022-12-24T01:17:39;9.6;;;1.7;;
4325;SDS011;58429;49.826;10.880;2022-12-24T01:18:39;9.6;;;1.7;;
4325;SDS011;58429;49.826;10.880;2022-12-24T01:19:39;9.6;;;1.7;;
4325;SDS011;58429;49.826;10.880;2022-12-24T01:20:39;10.7;;;1.9;;
4325;SDS011;58429;49.826;10.880;2022-12-24T01:21:39;10.7;;;1.9;;
4325;SDS011;58429;49.826;10.880;2022-12-24T01:22:39;10.7;;;1.9;;
4325;SDS011;58429;49.826;10.880;2022-12-24T01:23:39;9.1;;;1.3;;
4325;SDS011;58429;49.826;10.880;2022-12-24T01:24:40;9.1;;;1.3;;
4325;SDS011;58429;49.826;10.880;2022-12-24T01:25:39;9.1;;;1.3;;
4325;SDS011;58429;49.826;10.880;2022-12-24T01:26:40;10.7;;;1.7;;
4325;SDS011;58429;49.826;10.880;2022-12-24T01:27:39;10.7;;;1.7;;
4325;SDS011;58429;49.826;10.880;2022-12-24T01:28:39;10.7;;;1.7;;
4325;SDS011;58429;49.826;10.880;2022-12-24T01:29:39;8.7;;;1.7;;
4325;SDS011;58429;49.826;10.880;2022-12-24T01:30:39;8.7;;;1.7;;
4325;SDS011;58429;49.826;10.880;2022-12-24T01:31:39;8.7;;;1.7;;
4325;SDS011;58429;49.826;10.880;2022-12-24T01:32:40;11.1;;;1.7;;
4325;SDS011;58429;49.826;10.880;2022-12-24T01:33:40;11.1;;;1.7;;
4325;SDS011;58429;49.826;10.880;2022-12-24T01:34:39;11.1;;;1.7;;
4325;SDS011;58429;49.826;10.880;2022-12-24T01:35:40;9.3;;;2;;
4325;SDS011;58429;49.826;10.880;2022-12-24T01:36:39;9.3;;;2;;
4325;SDS011;58429;49.826;10.880;2022-12-24T01:37:40;9.3;;;2;;
4325;SDS011;58429;49.826;10.880;2022-12-24T01:38:39;7.9;;;1.6;;
4325;SDS011;58429;49.826;10.880;2022-12-24T01:39:39;7.9;;;1.6;;
4325;SDS011;58429;49.826;10.880;2022-12-24T01:40:40;7.9;;;1.6;;
4325;SDS011;58429;49.826;10.880;2022-12-24T01:41:39;7.9;;;1.6;;
4325;SDS011;58429;49.826;10.880;2022-12-24T01:42:41;9.9;;;1.8;;
4325;SDS011;58429;49.826;10.880;2022-12-24T01:43:39;9.9;;;1.8;;
4325;SDS011;58429;49.826;10.880;2022-12-24T01:44:40;9.9;;;1.8;;
4325;SDS011;58429;49.826;10.880;2022-12-24T01:45:42;7.4;;;1.5;;
4325;SDS011;58429;49.826;10.880;2022-12-24T01:46:39;7.4;;;1.5;;
4325;SDS011;58429;49.826;10.880;2022-12-24T01:47:39;7.4;;;1.5;;
4325;SDS011;58429;49.826;10.880;2022-12-24T01:48:40;9;;;1.8;;
4325;SDS011;58429;49.826;10.880;2022-12-24T01:49:40;9;;;1.8;;
4325;SDS011;58429;49.826;10.880;2022-12-24T01:50:39;9;;;1.8;;
4325;SDS011;58429;49.826;10.880;2022-12-24T01:51:40;10.3;;;1.7;;
4325;SDS011;58429;49.826;10.880;2022-12-24T01:52:39;10.3;;;1.7;;
4325;SDS011;58429;49.826;10.880;2022-12-24T01:53:40;10.3;;;1.7;;
4325;SDS011;58429;49.826;10.880;2022-12-24T01:54:40;12.6;;;1.7;;
4325;SDS011;58429;49.826;10.880;2022-12-24T01:55:39;12.6;;;1.7;;
4325;SDS011;58429;49.826;10.880;2022-12-24T01:56:41;12.6;;;1.7;;
4325;SDS011;58429;49.826;10.880;2022-12-24T01:57:41;7.6;;;1.5;;
4325;SDS011;58429;49.826;10.880;2022-12-24T01:58:40;7.6;;;1.5;;
4325;SDS011;58429;49.826;10.880;2022-12-24T01:59:39;7.6;;;1.5;;
4325;SDS011;58429;49.826;10.880;2022-12-24T02:00:40;10.1;;;1.7;;
4325;SDS011;58429;49.826;10.880;2022-12-24T02:01:39;10.1;;;1.7;;
4325;SDS011;58429;49.826;10.880;2022-12-24T02:02:40;10.1;;;1.7;;
4325;SDS011;58429;49.826;10.880;2022-12-24T02:03:39;10.8;;;2;;
4325;SDS011;58429;49.826;10.880;2022-12-24T02:04:40;10.8;;;2;;
4325;SDS011;58429;49.826;10.880;2022-12-24T02:05:41;10.8;;;2;;
4325;SDS011;58429;49.826;10.880;2022-12-24T02:06:39;11.1;;;1.8;;
4325;SDS011;58429;49.826;10.880;2022-12-24T02:07:40;11.1;;;1.8;;
4325;SDS011;58429;49.826;10.880;2022-12-24T02:08:39;11.1;;;1.8;;
4325;SDS011;58429;49.826;10.880;2022-12-24T02:09:39;9.4;;;1.7;;
4325;SDS011;58429;49.826;10.880;2022-12-24T02:10:40;9.4;;;1.7;;
4325;SDS011;58429;49.826;10.880;2022-12-24T02:11:39;9.4;;;1.7;;
4325;SDS011;58429;49.826;10.880;2022-12-24T02:12:40;10;;;1.9;;
4325;SDS011;58429;49.826;10.880;2022-12-24T02:13:40;10;;;1.9;;
4325;SDS011;58429;49.826;10.880;2022-12-24T02:14:39;10;;;1.9;;
4325;SDS011;58429;49.826;10.880;2022-12-24T02:15:43;7.4;;;1.6;;
4325;SDS011;58429;49.826;10.880;2022-12-24T02:16:41;7.4;;;1.6;;
4325;SDS011;58429;49.826;10.880;2022-12-24T02:17:42;7.4;;;1.6;;
4325;SDS011;58429;49.826;10.880;2022-12-24T02:18:42;8.4;;;1.7;;
4325;SDS011;58429;49.826;10.880;2022-12-24T02:20:02;8.4;;;1.7;;
4325;SDS011;58429;49.826;10.880;2022-12-24T02:20:45;8.4;;;1.7;;
4325;SDS011;58429;49.826;10.880;2022-12-24T02:21:44;9.3;;;1.8;;
4325;SDS011;58429;49.826;10.880;2022-12-24T02:22:44;9.3;;;1.8;;
4325;SDS011;58429;49.826;10.880;2022-12-24T02:23:47;9.3;;;1.8;;
4325;SDS011;58429;49.826;10.880;2022-12-24T02:24:52;11.2;;;2.5;;
4325;SDS011;58429;49.826;10.880;2022-12-24T02:25:43;11.2;;;2.5;;
4325;SDS011;58429;49.826;10.880;2022-12-24T02:26:46;11.2;;;2.5;;
4325;SDS011;58429;49.826;10.880;2022-12-24T02:27:44;9.9;;;1.7;;
4325;SDS011;58429;49.826;10.880;2022-12-24T02:28:44;9.9;;;1.7;;
4325;SDS011;58429;49.826;10.880;2022-12-24T02:29:56;9.9;;;1.7;;
4325;SDS011;58429;49.826;10.880;2022-12-24T02:30:41;11.3;;;2;;
4325;SDS011;58429;49.826;10.880;2022-12-24T02:31:40;11.3;;;2;;
4325;SDS011;58429;49.826;10.880;2022-12-24T02:32:43;11.3;;;2;;
4325;SDS011;58429;49.826;10.880;2022-12-24T02:33:40;11.3;;;2.7;;
4325;SDS011;58429;49.826;10.880;2022-12-24T02:34:42;11.3;;;2.7;;
4325;SDS011;58429;49.826;10.880;2022-12-24T02:35:42;11.3;;;2.7;;
4325;SDS011;58429;49.826;10.880;2022-12-24T02:36:41;9.6;;;1.7;;
4325;SDS011;58429;49.826;10.880;2022-12-24T02:37:40;9.6;;;1.7;;
4325;SDS011;58429;49.826;10.880;2022-12-24T02:38:41;9.6;;;1.7;;
4325;SDS011;58429;49.826;10.880;2022-12-24T02:39:40;8.2;;;1.5;;
4325;SDS011;58429;49.826;10.880;2022-12-24T02:40:41;8.2;;;1.5;;
4325;SDS011;58429;49.826;10.880;2022-12-24T02:41:41;8.2;;;1.5;;
4325;SDS011;58429;49.826;10.880;2022-12-24T02:42:41;10.4;;;2.1;;
4325;SDS011;58429;49.826;10.880;2022-12-24T02:43:41;10.4;;;2.1;;
4325;SDS011;58429;49.826;10.880;2022-12-24T02:44:41;10.4;;;2.1;;
4325;SDS011;58429;49.826;10.880;2022-12-24T02:45:41;10.3;;;1.7;;
4325;SDS011;58429;49.826;10.880;2022-12-24T02:46:40;10.3;;;1.7;;
4325;SDS011;58429;49.826;10.880;2022-12-24T02:47:40;10.3;;;1.7;;
4325;SDS011;58429;49.826;10.880;2022-12-24T02:48:40;10.3;;;2.1;;
4325;SDS011;58429;49.826;10.880;2022-12-24T02:49:42;10.3;;;2.1;;
4325;SDS011;58429;49.826;10.880;2022-12-24T02:50:56;10.3;;;2.1;;
4325;SDS011;58429;49.826;10.880;2022-12-24T02:51:40;9.8;;;1.7;;
4325;SDS011;58429;49.826;10.880;2022-12-24T02:52:40;9.8;;;1.7;;
4325;SDS011;58429;49.826;10.880;2022-12-24T02:53:40;9.8;;;1.7;;
4325;SDS011;58429;49.826;10.880;2022-12-24T02:54:40;8.5;;;1.5;;
4325;SDS011;58429;49.826;10.880;2022-12-24T02:55:42;8.5;;;1.5;;
4325;SDS011;58429;49.826;10.880;2022-12-24T02:56:44;8.5;;;1.5;;
4325;SDS011;58429;49.826;10.880;2022-12-24T02:57:43;12.3;;;2.1;;
4325;SDS011;58429;49.826;10.880;2022-12-24T02:58:41;12.3;;;2.1;;
4325;SDS011;58429;49.826;10.880;2022-12-24T02:59:47;12.3;;;2.1;;
4325;SDS011;58429;49.826;10.880;2022-12-24T03:00:42;9.5;;;1.8;;
4325;SDS011;58429;49.826;10.880;2022-12-24T03:01:42;9.5;;;1.8;;
4325;SDS011;58429;49.826;10.880;2022-12-24T03:02:45;9.5;;;1.8;;
4325;SDS011;58429;49.826;10.880;2022-12-24T03:03:43;9.6;;;1.6;;
4325;SDS011;58429;49.826;10.880;2022-12-24T03:04:41;9.6;;;1.6;;
4325;SDS011;58429;49.826;10.880;2022-12-24T03:05:41;9.6;;;1.6;;
4325;SDS011;58429;49.826;10.880;2022-12-24T03:06:42;9.1;;;1.3;;
4325;SDS011;58429;49.826;10.880;2022-12-24T03:07:41;9.1;;;1.3;;
4325;SDS011;58429;49.826;10.880;2022-12-24T03:08:41;9.1;;;1.3;;
4325;SDS011;58429;49.826;10.880;2022-12-24T03:09:43;7.8;;;1.6;;
4325;SDS011;58429;49.826;10.880;2022-12-24T03:10:40;7.8;;;1.6;;
4325;SDS011;58429;49.826;10.880;2022-12-24T03:11:41;7.8;;;1.6;;
4325;SDS011;58429;49.826;10.880;2022-12-24T03:12:40;12;;;2;;
4325;SDS011;58429;49.826;10.880;2022-12-24T03:13:40;12;;;2;;
4325;SDS011;58429;49.826;10.880;2022-12-24T03:14:40;12;;;2;;
4325;SDS011;58429;49.826;10.880;2022-12-24T03:15:40;9;;;1.2;;
4325;SDS011;58429;49.826;10.880;2022-12-24T03:16:40;9;;;1.2;;
4325;SDS011;58429;49.826;10.880;2022-12-24T03:17:41;9;;;1.2;;
4325;SDS011;58429;49.826;10.880;2022-12-24T03:18:41;7.6;;;1.4;;
4325;SDS011;58429;49.826;10.880;2022-12-24T03:19:40;7.6;;;1.4;;
4325;SDS011;58429;49.826;10.880;2022-12-24T03:20:41;7.6;;;1.4;;
4325;SDS011;58429;49.826;10.880;2022-12-24T03:21:40;8.1;;;1.4;;
4325;SDS011;58429;49.826;10.880;2022-12-24T03:22:40;8.1;;;1.4;;
4325;SDS011;58429;49.826;10.880;2022-12-24T03:23:40;8.1;;;1.4;;
4325;SDS011;58429;49.826;10.880;2022-12-24T03:24:40;7.9;;;1.6;;
4325;SDS011;58429;49.826;10.880;2022-12-24T03:25:41;7.9;;;1.6;;
4325;SDS011;58429;49.826;10.880;2022-12-24T03:26:40;7.9;;;1.6;;
4325;SDS011;58429;49.826;10.880;2022-12-24T03:27:40;10.3;;;1.6;;
4325;SDS011;58429;49.826;10.880;2022-12-24T03:28:40;10.3;;;1.6;;
4325;SDS011;58429;49.826;10.880;2022-12-24T03:29:40;10.3;;;1.6;;
4325;SDS011;58429;49.826;10.880;2022-12-24T03:30:40;10.3;;;1.6;;
4325;SDS011;58429;49.826;10.880;2022-12-24T03:31:41;8.7;;;1.7;;
4325;SDS011;58429;49.826;10.880;2022-12-24T03:32:40;8.7;;;1.7;;
4325;SDS011;58429;49.826;10.880;2022-12-24T03:33:40;8.7;;;1.7;;
4325;SDS011;58429;49.826;10.880;2022-12-24T03:34:40;9.4;;;1.6;;
4325;SDS011;58429;49.826;10.880;2022-12-24T03:35:40;9.4;;;1.6;;
4325;SDS011;58429;49.826;10.880;2022-12-24T03:36:40;9.4;;;1.6;;
4325;SDS011;58429;49.826;10.880;2022-12-24T03:37:40;10.7;;;1.4;;
4325;SDS011;58429;49.826;10.880;2022-12-24T03:38:40;10.7;;;1.4;;
4325;SDS011;58429;49.826;10.880;2022-12-24T03:39:40;10.7;;;1.4;;
4325;SDS011;58429;49.826;10.880;2022-12-24T03:40:40;8.9;;;1.8;;
4325;SDS011;58429;49.826;10.880;2022-12-24T03:41:40;8.9;;;1.8;;
4325;SDS011;58429;49.826;10.880;2022-12-24T03:42:40;8.9;;;1.8;;
4325;SDS011;58429;49.826;10.880;2022-12-24T03:43:40;7.7;;;1.4;;
4325;SDS011;58429;49.826;10.880;2022-12-24T03:44:40;7.7;;;1.4;;
4325;SDS011;58429;49.826;10.880;2022-12-24T03:45:40;7.7;;;1.4;;
4325;SDS011;58429;49.826;10.880;2022-12-24T03:46:40;13.1;;;1.7;;
4325;SDS011;58429;49.826;10.880;2022-12-24T03:47:40;13.1;;;1.7;;
4325;SDS011;58429;49.826;10.880;2022-12-24T03:48:40;13.1;;;1.7;;
4325;SDS011;58429;49.826;10.880;2022-12-24T03:49:40;11;;;1.8;;
4325;SDS011;58429;49.826;10.880;2022-12-24T03:50:40;11;;;1.8;;
4325;SDS011;58429;49.826;10.880;2022-12-24T03:51:40;11;;;1.8;;
4325;SDS011;58429;49.826;10.880;2022-12-24T03:52:40;11.5;;;1.8;;
4325;SDS011;58429;49.826;10.880;2022-12-24T03:53:40;11.5;;;1.8;;
4325;SDS011;58429;49.826;10.880;2022-12-24T03:54:40;11.5;;;1.8;;
4325;SDS011;58429;49.826;10.880;2022-12-24T03:55:40;7.7;;;1.8;;
4325;SDS011;58429;49.826;10.880;2022-12-24T03:56:40;7.7;;;1.8;;
4325;SDS011;58429;49.826;10.880;2022-12-24T03:57:40;7.7;;;1.8;;
4325;SDS011;58429;49.826;10.880;2022-12-24T03:58:40;9.2;;;1.7;;
4325;SDS011;58429;49.826;10.880;2022-12-24T03:59:40;9.2;;;1.7;;
4325;SDS011;58429;49.826;10.880;2022-12-24T04:00:40;9.2;;;1.7;;
4325;SDS011;58429;49.826;10.880;2022-12-24T04:01:40;10.7;;;1.7;;
4325;SDS011;58429;49.826;10.880;2022-12-24T04:02:40;10.7;;;1.7;;
4325;SDS011;58429;49.826;10.880;2022-12-24T04:03:40;10.7;;;1.7;;
4325;SDS011;58429;49.826;10.880;2022-12-24T04:04:40;12.3;;;1.8;;
4325;SDS011;58429;49.826;10.880;2022-12-24T04:05:40;12.3;;;1.8;;
4325;SDS011;58429;49.826;10.880;2022-12-24T04:06:40;12.3;;;1.8;;
4325;SDS011;58429;49.826;10.880;2022-12-24T04:07:40;10.3;;;1.3;;
4325;SDS011;58429;49.826;10.880;2022-12-24T04:08:40;10.3;;;1.3;;
4325;SDS011;58429;49.826;10.880;2022-12-24T04:09:40;10.3;;;1.3;;
4325;SDS011;58429;49.826;10.880;2022-12-24T04:10:40;9.7;;;1.8;;
4325;SDS011;58429;49.826;10.880;2022-12-24T04:11:40;9.7;;;1.8;;
4325;SDS011;58429;49.826;10.880;2022-12-24T04:12:40;9.7;;;1.8;;
4325;SDS011;58429;49.826;10.880;2022-12-24T04:13:40;10.5;;;1.9;;
4325;SDS011;58429;49.826;10.880;2022-12-24T04:14:40;10.5;;;1.9;;
4325;SDS011;58429;49.826;10.880;2022-12-24T04:15:40;10.5;;;1.9;;
4325;SDS011;58429;49.826;10.880;2022-12-24T04:16:40;11.3;;;1.7;;
4325;SDS011;58429;49.826;10.880;2022-12-24T04:17:40;11.3;;;1.7;;
4325;SDS011;58429;49.826;10.880;2022-12-24T04:18:40;11.3;;;1.7;;
4325;SDS011;58429;49.826;10.880;2022-12-24T04:19:40;10.5;;;1.8;;
4325;SDS011;58429;49.826;10.880;2022-12-24T04:20:40;10.5;;;1.8;;
4325;SDS011;58429;49.826;10.880;2022-12-24T04:21:40;10.5;;;1.8;;
4325;SDS011;58429;49.826;10.880;2022-12-24T04:22:40;10.5;;;1.7;;
4325;SDS011;58429;49.826;10.880;2022-12-24T04:23:40;10.5;;;1.7;;
4325;SDS011;58429;49.826;10.880;2022-12-24T04:24:40;10.5;;;1.7;;
4325;SDS011;58429;49.826;10.880;2022-12-24T04:25:40;8.9;;;1.8;;
4325;SDS011;58429;49.826;10.880;2022-12-24T04:26:40;8.9;;;1.8;;
4325;SDS011;58429;49.826;10.880;2022-12-24T04:27:40;8.9;;;1.8;;
4325;SDS011;58429;49.826;10.880;2022-12-24T04:28:40;8.1;;;1.7;;
4325;SDS011;58429;49.826;10.880;2022-12-24T04:29:40;8.1;;;1.7;;
4325;SDS011;58429;49.826;10.880;2022-12-24T04:30:40;8.1;;;1.7;;
4325;SDS011;58429;49.826;10.880;2022-12-24T04:31:40;12.1;;;2.4;;
4325;SDS011;58429;49.826;10.880;2022-12-24T04:32:40;12.1;;;2.4;;
4325;SDS011;58429;49.826;10.880;2022-12-24T04:33:40;12.1;;;2.4;;
4325;SDS011;58429;49.826;10.880;2022-12-24T04:34:40;8.1;;;1.8;;
4325;SDS011;58429;49.826;10.880;2022-12-24T04:35:40;8.1;;;1.8;;
4325;SDS011;58429;49.826;10.880;2022-12-24T04:36:40;8.1;;;1.8;;
4325;SDS011;58429;49.826;10.880;2022-12-24T04:37:40;8.6;;;2.1;;
4325;SDS011;58429;49.826;10.880;2022-12-24T04:38:40;8.6;;;2.1;;
4325;SDS011;58429;49.826;10.880;2022-12-24T04:39:40;8.6;;;2.1;;
4325;SDS011;58429;49.826;10.880;2022-12-24T04:40:40;11.8;;;2;;
4325;SDS011;58429;49.826;10.880;2022-12-24T04:41:40;11.8;;;2;;
4325;SDS011;58429;49.826;10.880;2022-12-24T04:42:40;11.8;;;2;;
4325;SDS011;58429;49.826;10.880;2022-12-24T04:43:40;10.9;;;2.2;;
4325;SDS011;58429;49.826;10.880;2022-12-24T04:44:40;10.9;;;2.2;;
4325;SDS011;58429;49.826;10.880;2022-12-24T04:45:40;10.9;;;2.2;;
4325;SDS011;58429;49.826;10.880;2022-12-24T04:46:40;10.8;;;1.8;;
4325;SDS011;58429;49.826;10.880;2022-12-24T04:47:40;10.8;;;1.8;;
4325;SDS011;58429;49.826;10.880;2022-12-24T04:48:40;10.8;;;1.8;;
4325;SDS011;58429;49.826;10.880;2022-12-24T04:49:40;8.5;;;1.8;;
4325;SDS011;58429;49.826;10.880;2022-12-24T04:50:40;8.5;;;1.8;;
4325;SDS011;58429;49.826;10.880;2022-12-24T04:51:45;8.5;;;1.8;;
4325;SDS011;58429;49.826;10.880;2022-12-24T04:52:40;9;;;1.7;;
4325;SDS011;58429;49.826;10.880;2022-12-24T04:53:40;9;;;1.7;;
4325;SDS011;58429;49.826;10.880;2022-12-24T04:54:40;9;;;1.7;;
4325;SDS011;58429;49.826;10.880;2022-12-24T04:55:42;10.6;;;1.6;;
4325;SDS011;58429;49.826;10.880;2022-12-24T04:56:40;10.6;;;1.6;;
4325;SDS011;58429;49.826;10.880;2022-12-24T04:57:40;10.6;;;1.6;;
4325;SDS011;58429;49.826;10.880;2022-12-24T04:58:40;9.5;;;1.9;;
4325;SDS011;58429;49.826;10.880;2022-12-24T04:59:40;9.5;;;1.9;;
4325;SDS011;58429;49.826;10.880;2022-12-24T05:00:40;9.5;;;1.9;;
4325;SDS011;58429;49.826;10.880;2022-12-24T05:01:40;10.7;;;2.2;;
4325;SDS011;58429;49.826;10.880;2022-12-24T05:02:40;10.7;;;2.2;;
4325;SDS011;58429;49.826;10.880;2022-12-24T05:03:40;10.7;;;2.2;;
4325;SDS011;58429;49.826;10.880;2022-12-24T05:04:40;9.1;;;1.8;;
4325;SDS011;58429;49.826;10.880;2022-12-24T05:05:40;9.1;;;1.8;;
4325;SDS011;58429;49.826;10.880;2022-12-24T05:06:40;9.1;;;1.8;;
4325;SDS011;58429;49.826;10.880;2022-12-24T05:07:40;6.7;;;1.4;;
4325;SDS011;58429;49.826;10.880;2022-12-24T05:08:40;6.7;;;1.4;;
4325;SDS011;58429;49.826;10.880;2022-12-24T05:09:40;6.7;;;1.4;;
4325;SDS011;58429;49.826;10.880;2022-12-24T05:10:40;11.1;;;1.8;;
4325;SDS011;58429;49.826;10.880;2022-12-24T05:11:40;11.1;;;1.8;;
4325;SDS011;58429;49.826;10.880;2022-12-24T05:12:40;11.1;;;1.8;;
4325;SDS011;58429;49.826;10.880;2022-12-24T05:13:40;8.7;;;1.5;;
4325;SDS011;58429;49.826;10.880;2022-12-24T05:14:40;8.7;;;1.5;;
4325;SDS011;58429;49.826;10.880;2022-12-24T05:15:40;8.7;;;1.5;;
4325;SDS011;58429;49.826;10.880;2022-12-24T05:16:40;11.7;;;1.9;;
4325;SDS011;58429;49.826;10.880;2022-12-24T05:17:40;11.7;;;1.9;;
4325;SDS011;58429;49.826;10.880;2022-12-24T05:18:40;11.7;;;1.9;;
4325;SDS011;58429;49.826;10.880;2022-12-24T05:19:40;9.8;;;1.8;;
4325;SDS011;58429;49.826;10.880;2022-12-24T05:20:40;9.8;;;1.8;;
4325;SDS011;58429;49.826;10.880;2022-12-24T05:21:40;9.8;;;1.8;;
4325;SDS011;58429;49.826;10.880;2022-12-24T05:22:40;9.8;;;1.8;;
4325;SDS011;58429;49.826;10.880;2022-12-24T05:23:40;9;;;1.6;;
4325;SDS011;58429;49.826;10.880;2022-12-24T05:24:40;9;;;1.6;;
4325;SDS011;58429;49.826;10.880;2022-12-24T05:25:40;9;;;1.6;;
4325;SDS011;58429;49.826;10.880;2022-12-24T05:26:40;8.8;;;1.4;;
4325;SDS011;58429;49.826;10.880;2022-12-24T05:27:40;8.8;;;1.4;;
4325;SDS011;58429;49.826;10.880;2022-12-24T05:28:40;8.8;;;1.4;;
4325;SDS011;58429;49.826;10.880;2022-12-24T05:29:40;10.2;;;1.5;;
4325;SDS011;58429;49.826;10.880;2022-12-24T05:30:40;10.2;;;1.5;;
4325;SDS011;58429;49.826;10.880;2022-12-24T05:31:40;10.2;;;1.5;;
4325;SDS011;58429;49.826;10.880;2022-12-24T05:32:40;7.5;;;1.5;;
4325;SDS011;58429;49.826;10.880;2022-12-24T05:33:40;7.5;;;1.5;;
4325;SDS011;58429;49.826;10.880;2022-12-24T05:34:40;7.5;;;1.5;;
4325;SDS011;58429;49.826;10.880;2022-12-24T05:35:40;10;;;1.6;;
4325;SDS011;58429;49.826;10.880;2022-12-24T05:36:40;10;;;1.6;;
4325;SDS011;58429;49.826;10.880;2022-12-24T05:37:40;10;;;1.6;;
4325;SDS011;58429;49.826;10.880;2022-12-24T05:38:40;9.9;;;1.9;;
4325;SDS011;58429;49.826;10.880;2022-12-24T05:39:40;9.9;;;1.9;;
4325;SDS011;58429;49.826;10.880;2022-12-24T05:40:40;9.9;;;1.9;;
4325;SDS011;58429;49.826;10.880;2022-12-24T05:41:40;10.1;;;1.9;;
4325;SDS011;58429;49.826;10.880;2022-12-24T05:42:40;10.1;;;1.9;;
4325;SDS011;58429;49.826;10.880;2022-12-24T05:43:40;10.1;;;1.9;;
4325;SDS011;58429;49.826;10.880;2022-12-24T05:44:40;9.5;;;1.6;;
4325;SDS011;58429;49.826;10.880;2022-12-24T05:45:40;9.5;;;1.6;;
4325;SDS011;58429;49.826;10.880;2022-12-24T05:46:40;9.5;;;1.6;;
4325;SDS011;58429;49.826;10.880;2022-12-24T05:47:40;9.2;;;1.7;;
4325;SDS011;58429;49.826;10.880;2022-12-24T05:48:40;9.2;;;1.7;;
4325;SDS011;58429;49.826;10.880;2022-12-24T05:49:40;9.2;;;1.7;;
4325;SDS011;58429;49.826;10.880;2022-12-24T05:50:40;8.6;;;1.9;;
4325;SDS011;58429;49.826;10.880;2022-12-24T05:51:40;8.6;;;1.9;;
4325;SDS011;58429;49.826;10.880;2022-12-24T05:52:40;8.6;;;1.9;;
4325;SDS011;58429;49.826;10.880;2022-12-24T05:53:40;10;;;1.9;;
4325;SDS011;58429;49.826;10.880;2022-12-24T05:54:40;10;;;1.9;;
4325;SDS011;58429;49.826;10.880;2022-12-24T05:55:40;10;;;1.9;;
4325;SDS011;58429;49.826;10.880;2022-12-24T05:56:40;10.6;;;1.9;;
4325;SDS011;58429;49.826;10.880;2022-12-24T05:57:40;10.6;;;1.9;;
4325;SDS011;58429;49.826;10.880;2022-12-24T05:58:40;10.6;;;1.9;;
4325;SDS011;58429;49.826;10.880;2022-12-24T05:59:40;9.4;;;1.6;;
4325;SDS011;58429;49.826;10.880;2022-12-24T06:00:40;9.4;;;1.6;;
4325;SDS011;58429;49.826;10.880;2022-12-24T06:01:40;9.4;;;1.6;;
4325;SDS011;58429;49.826;10.880;2022-12-24T06:02:40;11.9;;;2;;
4325;SDS011;58429;49.826;10.880;2022-12-24T06:03:40;11.9;;;2;;
4325;SDS011;58429;49.826;10.880;2022-12-24T06:04:40;11.9;;;2;;
4325;SDS011;58429;49.826;10.880;2022-12-24T06:05:40;11.6;;;2.1;;
4325;SDS011;58429;49.826;10.880;2022-12-24T06:06:40;11.6;;;2.1;;
4325;SDS011;58429;49.826;10.880;2022-12-24T06:07:40;11.6;;;2.1;;
4325;SDS011;58429;49.826;10.880;2022-12-24T06:08:40;11.6;;;2;;
4325;SDS011;58429;49.826;10.880;2022-12-24T06:09:40;11.6;;;2;;
4325;SDS011;58429;49.826;10.880;2022-12-24T06:10:40;11.6;;;2;;
4325;SDS011;58429;49.826;10.880;2022-12-24T06:11:40;11.6;;;1.8;;